If you wish to contribute or participate in the discussions about articles you are invited to join SKYbrary as a registered user

 Actions

Arak Airport

From SKYbrary Wiki

OIHR
Airport
ICAO: OIHR – IATA: AJK
Summary
Name Arak Airport
Region Middle East
Territory Iran IR.gif
Location Mobarak Abad, Markazi
Serving Arak
Elevation 1,662.074 m
5,453 ft1,662.074 m
Coordinates 34° 8' 1.82" N, 49° 50' 33.95" E
Runways
Designator Length Width Surface ROPS
8/26 2990 m9,809.711 ft
45 m147.638 ft
ASP /


METAR
Observation OIHR 180700Z 25018KT 9999 FEW035 05/M03 Q1014
Station Arak
Date/Time 18 March 2019 07:00:00
Wind direction 250°
Wind speed 18 kts
Lowest cloud amount few clouds
Temperature 5°C
Dew point
Humidity 56%
QNH 1014 hPa
Weather condition n/a

Airport serving Arak, Iran.

Climatology

Continental climate (Köppen climate classification Dsa).

Maps

Terrain

Loading map...

Airport Layout

Loading map...


Accidents & Serious Incidents at or in vicinity of OIHR

None on SKYbrary